Terminal Aerodrome Forecast
Issued by NWS

Home | Current Version | Previous Version | Text Only | Print | Product List | Glossary On
Versions: 1 2 3 4 5 6 7 8 9 10 11 12
201
FTUS45 KABQ 221749
TAFAEG
TAF
KAEG 221749Z 2218/2318 15014G22KT P6SM FEW090
     FM221930 20022G30KT P6SM SCT090
     FM230100 22012G20KT P6SM SCT080
     FM230400 19010KT P6SM BKN080
     FM230800 19006KT P6SM BKN080
     FM231600 18015G25KT P6SM BKN060=

USA.gov is the U.S. government's official web portal to all federal, state and local government web resources and services.